Skip Navigation Links
NOAA logo - Click to go to the NOAA homepage
NOAA's National Weather Service
Alaska Aviation Weather Unit
  NWS logo - Click to go to the NWS homepage
Left Navbar Graphic     01 AKDT = 09 GMT

   
NOAA is celebrating 200 years of science, service, and stewardship. Visit the NOAA 200th celebration Web site to learn more.
USA.gov is the U.S. Government's official Web portal to all Federal, state and local government Web resources and services.
Facebook
NWS on Facebook

Important Change Regarding the AAWU Web Presence

 

Over the last several months, the AAWU has been working to navigate its webpages to a nationally supported server. Security, as well as other needs, have necessitated the change.  We have been given an extension for the site changeover while we diligently work at addressing feedback received. As of July 14, 2017, aawu.arh.noaa.gov will be discontinued. The new AAWU web address is weather.gov/aawu. It is now live and will run in-parallel with the old site until it is discontinued on July 14, 2017. Please continue to send any feedback or questions regarding the new webpages to nws.ar.aawu.webauthors@noaa.gov.  Thank you for your patience during this time of transition.
AAWU Home :: Display TAF Add Bookmark
TAF PAYA 190524Z 1906/2006  09006KT P6SM FEW015 SCT030 BKN060
     FM190900 12008KT 3SM -SHRA BR FEW006 BKN010 OVC025
     FM191200 12010KT 4SM -SHRA BR SCT010 BKN015 OVC025
      WS020/15025KT
     FM191500 12010KT 6SM -SHRA BR FEW006 SCT010 OVC035
      WS020/14040KT
     FM192100 11008KT P6SM -SHRA SCT025 BKN035 OVC040
      AMD LTD TO CLD VIS AND WIND=

7436
FTAK31 PAJN 190524
TAFAGS
TAF
PAYA 190303Z AUTO 08004KT 10SM FEW009 BKN060 OVC075 12/11 A2990=

METAR PAYA 190353Z AUTO 08006KT 10SM FEW015 OVC060 11/10 A2990 RMK AO2
     RAB24E44 SLP125 P0000 T01110100 TSNO=

METAR PAYA 190453Z AUTO 09005KT 10SM OVC060 11/10 A2991 RMK AO2 RAB23E33
     SLP128 P0000 T01110100 TSNO=

METAR PAYA 190553Z AUTO 08003KT 10SM FEW060 SCT090 10/09 A2992 RMK
 AO2 SLP130 60014 T01000094 10150 20100 53004 TSNO=

METAR PAYA 190653Z AUTO 10003KT 10SM -RA FEW016 SCT021 OVC070 10/09
     A2992 RMK AO2 RAB50 SLP133 P0000 T01000089 TSNO=

PAYA 190753Z AUTO 08003KT 10SM SCT055 BKN070 10/09 A2992 RMK AO2
     RAE45 SLP131 P0001 T01000094 TSNO=

METAR PAYA 190853Z AUTO 09003KT 10SM BKN110 10/09 A2991 RMK AO2 SLP130
     60001 T01000089 401610050 58001 TSNO=


NOAA's National Weather Service
Alaska Aviation Weather Unit
6930 Sand Lake Road
Anchorage, AK 99502-1845
Disclaimer
Credits
Glossary
Privacy Policy
About Us
Career Opportunities
Contact AAWU Internet Services Site last modified: April, 17th 2012